Time;durP1;ratioP1;P1;durP2;ratioP2;P2;SDS_P1;SDS_P2;PMS_P1;PMS_P2;Temp;Humidity;BMP_temperature;BMP_pressure;BME280_temperature;BME280_humidity;BME280_pressure;Samples;Min_cycle;Max_cycle;Signal;HPM_P1;HPM_P2
2022/01/17 00:01:33;;;;;;;22.15;3.38;;;5.40;99.90;;;;;;5032988;28;20033;-60
2022/01/17 00:03:58;;;;;;;17.42;3.22;;;5.40;99.90;;;;;;5044647;28;20068;-61
2022/01/17 00:06:24;;;;;;;16.30;2.90;;;5.40;99.90;;;;;;5025677;28;20764;-60
2022/01/17 00:08:50;;;;;;;17.90;3.10;;;5.40;99.90;;;;;;5010606;28;20496;-59
2022/01/17 00:11:17;;;;;;;24.02;2.80;;;5.40;99.90;;;;;;5024968;28;20063;-59
2022/01/17 00:13:45;;;;;;;21.15;3.15;;;5.40;99.90;;;;;;5042088;28;20059;-59
2022/01/17 00:16:15;;;;;;;24.90;3.50;;;5.40;99.90;;;;;;5012002;28;20384;-60
2022/01/17 00:21:11;;;;;;;17.08;2.97;;;5.40;99.90;;;;;;5044932;28;20076;-59
2022/01/17 00:23:37;;;;;;;26.00;4.00;;;5.40;99.90;;;;;;5015110;28;20051;-60
2022/01/17 00:26:06;;;;;;;15.30;2.60;;;5.40;99.90;;;;;;5043611;28;20056;-59
2022/01/17 00:28:33;;;;;;;18.33;3.33;;;5.40;99.90;;;;;;5026849;28;20072;-59
2022/01/17 00:31:01;;;;;;;22.25;3.05;;;5.40;99.90;;;;;;5026692;28;20048;-60
2022/01/17 00:33:27;;;;;;;31.02;3.58;;;5.40;99.90;;;;;;5043260;28;20049;-59
2022/01/17 00:35:53;;;;;;;24.58;3.80;;;5.40;99.90;;;;;;5026479;28;20052;-60
2022/01/17 00:38:19;;;;;;;28.90;3.72;;;5.40;99.90;;;;;;5001300;28;20178;-59
2022/01/17 00:40:45;;;;;;;22.20;4.18;;;5.40;99.90;;;;;;5026169;28;20495;-59
2022/01/17 00:43:12;;;;;;;15.70;3.13;;;5.30;99.90;;;;;;5043373;28;20045;-60
2022/01/17 00:45:40;;;;;;;24.38;3.88;;;5.30;99.90;;;;;;5027992;28;20051;-59
2022/01/17 00:48:07;;;;;;;29.83;3.95;;;5.30;99.90;;;;;;5032858;28;20114;-59
2022/01/17 00:50:37;;;;;;;21.50;3.70;;;5.20;99.90;;;;;;5026005;28;20087;-60
2022/01/17 00:53:03;;;;;;;23.75;3.55;;;5.20;99.90;;;;;;5010757;28;20076;-59
2022/01/17 00:55:33;;;;;;;21.98;3.20;;;5.20;99.90;;;;;;5026083;28;20149;-60
2022/01/17 00:57:59;;;;;;;23.48;3.42;;;5.10;99.90;;;;;;5026129;28;20048;-60
2022/01/17 01:00:26;;;;;;;20.65;3.78;;;5.10;99.90;;;;;;5028206;28;20504;-59
2022/01/17 01:02:51;;;;;;;22.30;3.58;;;5.10;99.90;;;;;;5027191;28;20041;-59
2022/01/17 01:05:17;;;;;;;20.33;3.40;;;5.10;99.90;;;;;;5033221;28;20041;-59
2022/01/17 01:07:45;;;;;;;18.65;4.40;;;5.10;99.90;;;;;;5028171;28;20045;-59
2022/01/17 01:10:12;;;;;;;24.25;3.55;;;5.10;99.90;;;;;;5016631;28;20041;-60
2022/01/17 01:12:40;;;;;;;30.08;3.72;;;5.10;99.90;;;;;;5030546;28;20551;-59
2022/01/17 01:15:12;;;;;;;25.40;3.22;;;5.10;99.90;;;;;;5028545;28;20446;-59
2022/01/17 01:17:49;;;;;;;18.67;3.30;;;5.10;99.90;;;;;;5026685;28;20049;-60
2022/01/17 01:28:18;;;;;;;23.20;3.30;;;5.10;99.90;;;;;;5030145;28;20041;-60
2022/01/17 01:30:48;;;;;;;22.00;3.00;;;5.10;99.90;;;;;;5023425;28;20053;-60
2022/01/17 01:33:24;;;;;;;24.25;3.28;;;5.10;99.90;;;;;;5013686;28;20045;-60
2022/01/17 01:35:57;;;;;;;28.67;3.88;;;5.10;99.90;;;;;;5026964;28;20049;-60
2022/01/17 01:38:22;;;;;;;;;;;5.10;99.90;;;;;;5030500;28;20055;-60
2022/01/17 01:40:48;;;;;;;16.70;3.00;;;5.10;99.90;;;;;;5031496;28;19925;-59
2022/01/17 01:43:14;;;;;;;22.20;3.42;;;5.10;99.90;;;;;;5027059;28;20049;-59
2022/01/17 01:45:40;;;;;;;25.35;3.00;;;5.10;99.90;;;;;;5029339;28;20050;-59
2022/01/17 01:48:08;;;;;;;22.65;4.18;;;5.10;99.90;;;;;;5026696;28;20196;-59
2022/01/17 01:50:34;;;;;;;21.33;3.20;;;5.00;99.90;;;;;;5042910;28;20474;-60
2022/01/17 01:52:59;;;;;;;22.17;4.32;;;5.00;99.90;;;;;;5026594;28;20052;-59
2022/01/17 01:55:26;;;;;;;20.30;3.40;;;5.00;99.90;;;;;;5045327;28;20450;-61
2022/01/17 01:57:52;;;;;;;18.70;3.25;;;5.00;99.90;;;;;;5028146;28;20106;-60
2022/01/17 02:00:18;;;;;;;20.92;3.10;;;5.00;99.90;;;;;;5045094;28;20044;-60
2022/01/17 02:02:45;;;;;;;24.83;3.13;;;5.00;99.90;;;;;;5028689;28;20134;-61
2022/01/17 02:05:11;;;;;;;20.52;3.22;;;5.00;99.90;;;;;;5032897;28;20037;-61
2022/01/17 02:07:39;;;;;;;22.33;3.78;;;5.00;99.90;;;;;;5032146;28;20113;-59
2022/01/17 02:10:05;;;;;;;15.13;2.53;;;4.90;99.90;;;;;;5034860;28;20145;-59
2022/01/17 02:12:32;;;;;;;18.20;3.17;;;4.90;99.90;;;;;;5043257;28;20099;-59
2022/01/17 02:14:57;;;;;;;20.27;3.33;;;4.90;99.90;;;;;;5032349;28;20036;-59
2022/01/17 02:17:25;;;;;;;23.20;3.47;;;4.90;99.90;;;;;;5044256;28;20102;-59
2022/01/17 02:20:05;;;;;;;20.15;3.60;;;4.80;99.90;;;;;;5047073;28;20063;-60
2022/01/17 02:22:32;;;;;;;22.08;3.60;;;4.80;99.90;;;;;;5044268;28;20144;-59
2022/01/17 02:24:58;;;;;;;23.10;3.47;;;4.80;99.90;;;;;;5017577;28;20149;-60
2022/01/17 02:27:24;;;;;;;21.25;3.70;;;4.70;99.90;;;;;;5049574;28;20106;-60
2022/01/17 02:29:49;;;;;;;15.57;3.05;;;4.80;99.90;;;;;;5026141;28;20460;-61
2022/01/17 02:32:15;;;;;;;30.38;4.35;;;4.80;99.90;;;;;;5044997;28;20110;-60
2022/01/17 02:34:43;;;;;;;23.48;3.20;;;4.70;99.90;;;;;;5026227;28;20410;-61
2022/01/17 02:37:10;;;;;;;28.17;3.72;;;4.80;99.90;;;;;;5032327;28;20051;-60
2022/01/17 02:39:37;;;;;;;19.77;3.70;;;4.80;99.90;;;;;;5044145;28;20097;-59
2022/01/17 02:42:05;;;;;;;25.80;3.22;;;4.80;99.90;;;;;;5044648;28;20048;-60
2022/01/17 02:44:31;;;;;;;27.98;3.40;;;4.80;99.90;;;;;;5029837;28;20494;-59
2022/01/17 02:46:58;;;;;;;24.40;3.15;;;4.90;99.90;;;;;;5047126;28;20206;-59
2022/01/17 02:49:24;;;;;;;24.55;3.65;;;4.90;99.90;;;;;;5030402;28;20084;-60
2022/01/17 02:51:51;;;;;;;25.80;3.42;;;4.90;99.90;;;;;;5022959;28;20240;-60
2022/01/17 02:54:18;;;;;;;28.83;3.40;;;5.00;99.90;;;;;;5025931;28;20052;-60
2022/01/17 02:56:43;;;;;;;23.00;3.40;;;5.00;99.90;;;;;;5026922;28;20175;-59
2022/01/17 02:59:10;;;;;;;32.03;4.00;;;5.00;99.90;;;;;;5026465;28;20049;-59
2022/01/17 03:01:35;;;;;;;26.13;3.15;;;5.00;99.90;;;;;;5024381;28;20041;-60
2022/01/17 03:04:01;;;;;;;28.13;3.30;;;5.00;99.90;;;;;;5025318;28;20076;-60
2022/01/17 03:06:28;;;;;;;23.88;3.63;;;5.00;99.90;;;;;;5028547;28;20053;-60
2022/01/17 03:08:54;;;;;;;27.77;4.22;;;5.10;99.90;;;;;;5025386;28;20068;-60
2022/01/17 03:11:23;;;;;;;24.10;2.95;;;5.10;99.90;;;;;;5025678;28;20099;-61
2022/01/17 03:13:50;;;;;;;22.38;3.33;;;5.10;99.90;;;;;;5017314;28;21748;-59
2022/01/17 03:16:18;;;;;;;22.38;3.38;;;5.10;99.90;;;;;;5025835;28;20127;-59
2022/01/17 03:18:47;;;;;;;24.48;3.42;;;5.10;99.90;;;;;;5024844;28;20045;-60
2022/01/17 03:21:16;;;;;;;19.08;2.92;;;5.10;99.90;;;;;;5026469;28;20041;-59
2022/01/17 03:23:43;;;;;;;23.08;4.22;;;5.10;99.90;;;;;;5025073;28;20073;-59
2022/01/17 03:26:09;;;;;;;27.85;3.75;;;5.10;99.90;;;;;;5025743;28;20045;-61
2022/01/17 03:28:36;;;;;;;18.25;3.00;;;5.10;99.90;;;;;;5025282;28;20045;-60
2022/01/17 03:31:03;;;;;;;21.55;2.90;;;5.20;99.90;;;;;;5023450;28;20045;-60
2022/01/17 03:33:29;;;;;;;20.33;3.00;;;5.20;99.90;;;;;;5022894;28;20214;-60
2022/01/17 03:35:55;;;;;;;30.27;3.58;;;5.20;99.90;;;;;;5025871;28;20044;-59
2022/01/17 03:38:24;;;;;;;24.02;3.38;;;5.20;99.90;;;;;;5026769;28;20069;-60
2022/01/17 03:40:51;;;;;;;24.08;3.45;;;5.30;99.90;;;;;;5008827;28;20084;-61
2022/01/17 03:43:19;;;;;;;24.13;3.40;;;5.20;99.90;;;;;;5021531;28;20041;-59
2022/01/17 03:45:45;;;;;;;18.23;3.00;;;5.30;99.90;;;;;;5024495;28;20069;-61
2022/01/17 03:48:11;;;;;;;18.67;3.58;;;5.30;99.90;;;;;;5023717;28;20063;-58
2022/01/17 03:50:37;;;;;;;15.18;2.65;;;5.30;99.90;;;;;;5025199;28;20170;-60
2022/01/17 03:53:04;;;;;;;23.60;2.90;;;5.40;99.90;;;;;;5024067;28;20052;-60
2022/01/17 03:55:32;;;;;;;28.17;4.15;;;5.40;99.90;;;;;;5023182;28;20099;-60
2022/01/17 03:57:58;;;;;;;20.67;3.80;;;5.30;99.90;;;;;;5040063;28;20527;-60
2022/01/17 04:00:33;;;;;;;22.35;3.33;;;5.40;99.90;;;;;;5024918;28;20072;-60
2022/01/17 04:02:59;;;;;;;24.80;3.08;;;5.40;99.90;;;;;;5023197;28;20550;-60
2022/01/17 04:05:25;;;;;;;17.73;3.00;;;5.40;99.90;;;;;;5024383;28;20393;-60
2022/01/17 04:07:51;;;;;;;18.70;3.78;;;5.40;99.90;;;;;;5024566;28;20071;-60
2022/01/17 04:10:17;;;;;;;18.02;3.17;;;5.40;99.90;;;;;;5012826;28;21451;-60
2022/01/17 04:12:45;;;;;;;20.48;3.20;;;5.40;99.90;;;;;;5023453;28;20053;-60
2022/01/17 04:15:12;;;;;;;23.40;3.85;;;5.40;99.90;;;;;;5025352;28;20045;-60
2022/01/17 04:17:40;;;;;;;27.20;3.50;;;5.40;99.90;;;;;;5027841;28;20048;-60
2022/01/17 04:20:13;;;;;;;19.88;3.80;;;5.50;99.90;;;;;;5028588;28;20107;-59
2022/01/17 04:22:43;;;;;;;;;;;5.40;99.90;;;;;;5023421;28;20055;-59
2022/01/17 04:25:10;;;;;;;17.90;3.53;;;5.50;99.90;;;;;;5027649;28;19960;-59
2022/01/17 04:27:36;;;;;;;17.35;3.10;;;5.50;99.90;;;;;;5022706;28;20630;-60
2022/01/17 04:30:05;;;;;;;18.02;3.08;;;5.50;99.90;;;;;;5024836;28;20288;-60
2022/01/17 04:32:31;;;;;;;23.33;4.57;;;5.50;99.90;;;;;;5022957;28;20045;-61
2022/01/17 04:34:56;;;;;;;21.10;2.95;;;5.50;99.90;;;;;;5029329;28;20056;-60
2022/01/17 04:37:22;;;;;;;23.10;3.00;;;5.60;99.90;;;;;;5006678;28;20041;-59
2022/01/17 04:39:48;;;;;;;26.88;3.45;;;5.60;99.90;;;;;;5023056;28;20084;-59
2022/01/17 04:42:16;;;;;;;20.63;3.60;;;5.60;99.90;;;;;;5024667;28;20128;-59
2022/01/17 04:47:31;;;;;;;21.45;3.60;;;5.60;99.90;;;;;;5023394;28;20641;-59
2022/01/17 04:49:58;;;;;;;20.17;3.15;;;5.70;99.90;;;;;;5036738;28;20063;-60
2022/01/17 04:52:25;;;;;;;30.25;4.32;;;5.70;99.90;;;;;;5044125;28;20119;-59
2022/01/17 04:54:54;;;;;;;29.95;3.50;;;5.70;99.90;;;;;;5026096;28;20904;-59
2022/01/17 04:57:21;;;;;;;28.17;3.95;;;5.70;99.90;;;;;;5027525;28;20049;-60
2022/01/17 04:59:48;;;;;;;23.77;3.65;;;5.80;99.90;;;;;;5045880;28;20067;-60
2022/01/17 05:02:14;;;;;;;23.40;4.03;;;5.80;99.90;;;;;;5042959;28;20406;-60
2022/01/17 05:04:40;;;;;;;22.10;3.60;;;5.90;99.90;;;;;;5027498;28;20151;-59
2022/01/17 05:07:06;;;;;;;24.67;3.88;;;5.90;99.90;;;;;;5025830;28;20422;-59
2022/01/17 05:09:32;;;;;;;22.92;3.53;;;5.90;99.90;;;;;;5043108;28;20057;-60
2022/01/17 05:11:58;;;;;;;27.85;3.70;;;5.90;99.90;;;;;;5015013;28;20140;-59
2022/01/17 05:14:26;;;;;;;22.70;3.95;;;5.90;99.90;;;;;;5010698;28;20040;-60
2022/01/17 05:17:00;;;;;;;22.20;4.40;;;6.00;99.90;;;;;;5044984;28;20087;-60
2022/01/17 05:22:10;;;;;;;22.13;3.88;;;6.00;99.90;;;;;;5041525;28;20125;-59
2022/01/17 05:24:36;;;;;;;26.42;4.13;;;6.00;99.90;;;;;;5029115;28;20578;-59
2022/01/17 05:27:03;;;;;;;24.95;4.93;;;6.00;99.90;;;;;;4996350;28;20075;-59
2022/01/17 05:29:29;;;;;;;25.40;4.55;;;6.00;99.90;;;;;;5043014;28;20188;-60
2022/01/17 05:31:55;;;;;;;26.50;4.40;;;6.10;99.90;;;;;;5026605;28;20495;-60
2022/01/17 05:34:20;;;;;;;32.45;4.35;;;6.00;99.90;;;;;;5030929;28;20052;-61
2022/01/17 05:36:46;;;;;;;25.23;4.47;;;6.00;99.90;;;;;;5028749;28;20093;-60
2022/01/17 05:39:12;;;;;;;21.13;4.32;;;6.00;99.90;;;;;;5032481;28;20139;-59
2022/01/17 05:41:38;;;;;;;28.60;4.28;;;6.10;99.90;;;;;;5048437;28;20045;-59
2022/01/17 05:44:04;;;;;;;20.92;4.65;;;6.00;99.90;;;;;;5044582;28;20044;-58
2022/01/17 05:46:30;;;;;;;36.05;5.13;;;6.10;99.90;;;;;;5047157;28;20094;-60
2022/01/17 05:48:55;;;;;;;26.90;4.93;;;6.10;99.90;;;;;;5046652;28;20431;-60
2022/01/17 05:51:21;;;;;;;25.02;4.15;;;6.00;99.90;;;;;;5046894;28;20078;-60
2022/01/17 05:53:47;;;;;;;22.35;4.25;;;6.10;99.90;;;;;;5044844;28;20055;-60
2022/01/17 05:56:13;;;;;;;32.85;5.18;;;6.10;99.90;;;;;;5047630;28;20088;-59
2022/01/17 05:58:38;;;;;;;29.50;5.32;;;6.10;99.90;;;;;;5047354;28;20577;-60
2022/01/17 06:01:05;;;;;;;20.33;4.10;;;6.10;99.90;;;;;;5045940;28;20404;-59
2022/01/17 06:03:32;;;;;;;23.70;4.22;;;6.10;99.90;;;;;;5046435;28;20476;-58
2022/01/17 06:05:58;;;;;;;31.17;5.00;;;6.10;99.90;;;;;;5047455;28;20056;-58
2022/01/17 06:08:24;;;;;;;34.10;4.78;;;6.10;99.90;;;;;;5012046;28;20089;-60
2022/01/17 06:10:50;;;;;;;28.48;5.00;;;6.10;99.90;;;;;;5029465;28;20052;-60
2022/01/17 06:13:16;;;;;;;28.00;5.05;;;6.10;99.90;;;;;;5044842;28;20099;-60
2022/01/17 06:15:41;;;;;;;30.40;5.10;;;6.10;99.90;;;;;;5047667;28;20109;-60
2022/01/17 06:18:07;;;;;;;33.85;5.00;;;6.10;99.90;;;;;;5047042;28;20040;-61
2022/01/17 06:20:33;;;;;;;34.35;5.78;;;6.10;99.90;;;;;;5015120;28;20040;-59
2022/01/17 06:22:59;;;;;;;29.02;4.82;;;6.10;99.90;;;;;;5019976;28;20128;-60
2022/01/17 06:25:25;;;;;;;38.92;5.32;;;6.10;99.90;;;;;;5032249;28;20052;-60
2022/01/17 06:27:51;;;;;;;38.00;6.40;;;6.10;99.90;;;;;;5030970;28;20055;-59
2022/01/17 06:30:16;;;;;;;35.35;5.55;;;6.10;99.90;;;;;;5046030;28;20566;-58
2022/01/17 06:32:43;;;;;;;42.55;5.80;;;6.10;99.90;;;;;;5028467;28;20048;-59
2022/01/17 06:35:09;;;;;;;35.75;5.32;;;6.10;99.90;;;;;;5046599;28;20052;-60
2022/01/17 06:37:38;;;;;;;31.20;5.30;;;6.10;99.90;;;;;;5032070;28;20040;-60
2022/01/17 06:40:05;;;;;;;40.13;5.75;;;6.10;99.90;;;;;;5030323;28;20060;-58
2022/01/17 06:42:30;;;;;;;31.52;4.93;;;6.10;99.90;;;;;;5040852;28;20048;-61
2022/01/17 06:44:56;;;;;;;38.38;5.95;;;6.10;99.90;;;;;;5014822;28;20044;-60
2022/01/17 06:47:22;;;;;;;35.53;5.47;;;6.10;99.90;;;;;;5046082;28;20133;-59
2022/01/17 06:49:49;;;;;;;43.13;5.90;;;6.10;99.90;;;;;;5046871;28;20479;-59
2022/01/17 06:52:15;;;;;;;44.83;5.10;;;6.20;99.90;;;;;;5036343;28;20179;-60
2022/01/17 06:54:41;;;;;;;34.72;5.93;;;6.20;99.90;;;;;;5000689;28;20656;-59
2022/01/17 06:57:07;;;;;;;35.13;5.22;;;6.20;99.90;;;;;;5045964;28;20053;-60
2022/01/17 06:59:32;;;;;;;37.33;5.25;;;6.20;99.90;;;;;;5038057;28;20052;-59
2022/01/17 07:01:58;;;;;;;36.28;5.40;;;6.20;99.90;;;;;;5051840;28;20049;-59
2022/01/17 07:04:24;;;;;;;33.25;5.35;;;6.20;99.90;;;;;;5044924;28;20053;-59
2022/01/17 07:06:50;;;;;;;39.13;5.68;;;6.20;99.90;;;;;;5028446;28;20052;-59
2022/01/17 07:09:19;;;;;;;34.30;6.03;;;6.20;99.90;;;;;;5043088;28;20422;-60
2022/01/17 07:11:45;;;;;;;43.80;5.85;;;6.20;99.90;;;;;;5027358;28;20063;-60
2022/01/17 07:14:12;;;;;;;37.45;6.20;;;6.20;99.90;;;;;;5049235;28;20051;-59
2022/01/17 07:16:39;;;;;;;48.08;5.70;;;6.20;99.90;;;;;;5054980;28;20368;-60
2022/01/17 07:19:05;;;;;;;37.85;5.72;;;6.20;99.90;;;;;;5050978;28;20551;-60
2022/01/17 07:21:31;;;;;;;41.97;6.15;;;6.30;99.90;;;;;;5036923;28;20041;-58
2022/01/17 07:23:57;;;;;;;43.75;6.38;;;6.30;99.90;;;;;;5035694;28;20487;-59
2022/01/17 07:26:23;;;;;;;44.35;6.95;;;6.30;99.90;;;;;;5049343;28;20084;-59
2022/01/17 07:28:49;;;;;;;47.80;5.78;;;6.30;99.90;;;;;;5036064;28;20052;-59
2022/01/17 07:31:18;;;;;;;35.45;5.70;;;6.40;99.90;;;;;;5053686;28;20482;-58
2022/01/17 07:33:44;;;;;;;43.95;5.88;;;6.40;99.90;;;;;;5041054;28;20119;-60
2022/01/17 07:36:15;;;;;;;40.63;5.30;;;6.40;99.90;;;;;;5039277;28;20049;-59
2022/01/17 07:38:41;;;;;;;48.22;6.78;;;6.50;99.90;;;;;;5036378;28;20040;-59
2022/01/17 07:41:08;;;;;;;41.95;6.32;;;6.40;99.90;;;;;;5053323;28;20052;-59
2022/01/17 07:43:36;;;;;;;43.20;5.82;;;6.40;99.90;;;;;;5032174;28;20040;-59
2022/01/17 07:46:07;;;;;;;36.55;5.72;;;6.50;99.90;;;;;;5051094;28;20543;-59
2022/01/17 07:51:21;;;;;;;34.20;5.28;;;6.50;99.90;;;;;;5014819;28;20049;-59
2022/01/17 07:53:47;;;;;;;46.00;6.22;;;6.50;99.90;;;;;;5011974;28;20095;-59
2022/01/17 07:56:13;;;;;;;40.13;6.43;;;6.50;99.90;;;;;;5013036;28;20046;-60
2022/01/17 07:58:40;;;;;;;41.75;6.00;;;6.60;99.90;;;;;;5014537;28;20061;-58
2022/01/17 08:01:06;;;;;;;49.72;6.88;;;6.60;99.90;;;;;;4992090;28;20057;-60
2022/01/17 08:03:33;;;;;;;43.15;6.32;;;6.60;99.90;;;;;;5012295;28;20050;-59
2022/01/17 08:05:59;;;;;;;34.90;5.57;;;6.60;99.90;;;;;;5009878;28;20050;-59
2022/01/17 08:08:25;;;;;;;37.95;6.00;;;6.60;99.90;;;;;;5013958;28;20042;-59
2022/01/17 08:10:51;;;;;;;46.33;7.25;;;6.70;99.90;;;;;;5014649;28;20048;-66
2022/01/17 08:13:21;;;;;;;35.15;6.07;;;6.70;99.90;;;;;;5011953;28;20508;-64
2022/01/17 08:15:47;;;;;;;47.72;6.50;;;6.80;99.90;;;;;;5012587;28;20045;-65
2022/01/17 08:18:14;;;;;;;40.65;5.88;;;6.80;99.90;;;;;;5010561;28;20584;-64
2022/01/17 08:20:41;;;;;;;40.92;5.80;;;6.90;99.90;;;;;;5012978;28;20102;-62
2022/01/17 08:23:07;;;;;;;45.72;6.03;;;6.80;99.90;;;;;;5010440;28;20049;-63
2022/01/17 08:25:34;;;;;;;40.65;5.80;;;6.90;99.90;;;;;;5013404;28;20578;-65
2022/01/17 08:28:00;;;;;;;36.53;5.75;;;6.90;99.90;;;;;;5010835;28;20075;-66
2022/01/17 08:30:26;;;;;;;51.65;6.75;;;7.00;99.90;;;;;;5012379;28;20505;-65
2022/01/17 08:32:52;;;;;;;39.53;6.00;;;7.00;99.90;;;;;;5009869;28;20086;-64
2022/01/17 08:35:19;;;;;;;43.42;6.20;;;7.00;99.90;;;;;;5011425;28;20057;-66
2022/01/17 08:37:45;;;;;;;39.97;6.07;;;7.00;99.90;;;;;;5011426;28;20095;-63
2022/01/17 08:40:11;;;;;;;45.80;6.75;;;7.00;99.90;;;;;;5013705;28;20485;-65
2022/01/17 08:42:37;;;;;;;43.38;5.88;;;7.10;99.90;;;;;;5010317;28;20074;-66
2022/01/17 08:45:09;;;;;;;48.90;6.18;;;7.10;99.90;;;;;;5002799;28;20049;-66
2022/01/17 08:47:35;;;;;;;45.88;6.00;;;7.10;99.90;;;;;;5014297;28;20141;-63
2022/01/17 08:50:01;;;;;;;48.35;6.30;;;7.10;99.90;;;;;;5031095;28;20065;-66
2022/01/17 08:52:27;;;;;;;51.72;7.13;;;7.20;99.90;;;;;;5033594;28;20583;-64
2022/01/17 08:54:53;;;;;;;44.25;6.43;;;7.20;99.90;;;;;;5049808;28;20096;-64
2022/01/17 08:57:19;;;;;;;43.20;6.43;;;7.30;99.90;;;;;;5036032;28;20047;-66
2022/01/17 08:59:45;;;;;;;46.03;7.07;;;7.30;99.90;;;;;;5051603;28;20102;-66
2022/01/17 09:02:13;;;;;;;37.85;5.97;;;7.40;99.90;;;;;;5050709;28;20091;-63
2022/01/17 09:04:42;;;;;;;41.80;7.10;;;7.40;99.90;;;;;;5050438;28;20106;-66
2022/01/17 09:07:13;;;;;;;42.20;6.15;;;7.40;99.90;;;;;;5053685;28;20040;-66
2022/01/17 09:09:41;;;;;;;53.17;7.68;;;7.50;99.90;;;;;;5034505;28;20048;-66
2022/01/17 09:12:09;;;;;;;40.03;6.55;;;7.50;99.90;;;;;;5036588;28;21986;-66
2022/01/17 09:14:36;;;;;;;50.05;9.40;;;7.60;99.90;;;;;;5035611;28;20088;-66
2022/01/17 09:17:03;;;;;;;37.40;7.00;;;7.60;99.90;;;;;;5039047;28;20045;-65
2022/01/17 09:19:30;;;;;;;43.40;6.65;;;7.60;99.90;;;;;;5056124;28;20102;-66
2022/01/17 09:21:56;;;;;;;43.85;6.07;;;7.60;99.90;;;;;;5038068;28;20044;-65
2022/01/17 09:24:22;;;;;;;44.15;7.25;;;7.70;99.90;;;;;;5034515;28;20463;-62
2022/01/17 09:26:47;;;;;;;53.45;6.90;;;7.70;99.90;;;;;;5056327;28;20084;-66
2022/01/17 09:29:13;;;;;;;49.15;6.97;;;7.70;99.90;;;;;;5044215;28;20265;-66
2022/01/17 09:31:39;;;;;;;49.65;7.63;;;7.80;99.90;;;;;;5045565;28;20044;-66
2022/01/17 09:34:05;;;;;;;48.47;7.72;;;7.80;99.90;;;;;;5053266;28;20049;-66
2022/01/17 09:36:34;;;;;;;47.83;7.32;;;7.80;99.90;;;;;;5035435;28;20049;-65
2022/01/17 09:39:05;;;;;;;50.50;7.47;;;7.80;99.90;;;;;;5053622;28;20052;-66
2022/01/17 09:41:32;;;;;;;48.30;7.75;;;7.80;99.90;;;;;;5038806;28;20090;-65
2022/01/17 09:43:59;;;;;;;41.35;6.43;;;7.90;99.90;;;;;;5030173;28;20049;-64
2022/01/17 09:46:28;;;;;;;51.50;7.63;;;7.90;99.90;;;;;;5035126;28;20058;-66
2022/01/17 09:49:01;;;;;;;49.08;7.28;;;7.90;99.90;;;;;;5037755;28;20055;-66
2022/01/17 09:51:41;;;;;;;52.13;7.43;;;8.00;99.90;;;;;;5044510;28;20056;-66
2022/01/17 09:54:08;;;;;;;62.85;8.75;;;8.00;99.90;;;;;;5054000;28;20487;-65
2022/01/17 09:56:35;;;;;;;54.38;7.50;;;8.00;99.90;;;;;;5038397;28;20037;-65
2022/01/17 09:59:02;;;;;;;44.10;7.07;;;8.10;99.90;;;;;;5045143;28;20049;-65
2022/01/17 10:01:28;;;;;;;48.88;7.97;;;8.10;99.90;;;;;;5053667;28;20579;-64
2022/01/17 10:03:57;;;;;;;44.97;7.45;;;8.10;99.90;;;;;;5033343;28;20045;-66
2022/01/17 10:06:24;;;;;;;54.92;8.00;;;8.20;99.90;;;;;;5037319;28;20487;-65
2022/01/17 10:09:21;;;;;;;52.38;7.85;;;8.20;99.90;;;;;;5057911;28;20043;-64
2022/01/17 10:12:09;;;;;;;51.22;8.20;;;8.20;99.90;;;;;;5037846;28;20144;-66
2022/01/17 10:14:44;;;;;;;49.90;8.10;;;8.20;99.90;;;;;;5052359;28;20060;-66
2022/01/17 10:17:13;;;;;;;53.70;8.25;;;8.20;99.90;;;;;;5036989;28;20049;-66
2022/01/17 10:19:40;;;;;;;58.67;9.70;;;8.20;99.90;;;;;;5036568;28;20051;-66
2022/01/17 10:22:15;;;;;;;46.17;7.45;;;8.30;99.90;;;;;;5053760;28;20037;-66
2022/01/17 10:24:55;;;;;;;56.13;9.20;;;8.30;99.90;;;;;;5018449;28;20045;-66
2022/01/17 10:35:25;;;;;;;57.65;8.15;;;8.50;99.90;;;;;;5053801;28;20124;-66
2022/01/17 10:38:06;;;;;;;60.50;8.90;;;8.40;99.90;;;;;;5035292;28;20060;-66
2022/01/17 10:40:36;;;;;;;54.08;8.32;;;8.40;99.90;;;;;;5052886;28;20040;-63
2022/01/17 10:43:05;;;;;;;63.45;9.82;;;8.40;99.90;;;;;;5035269;28;20048;-66
2022/01/17 10:45:38;;;;;;;61.20;7.82;;;8.40;99.90;;;;;;5051306;28;20056;-64
2022/01/17 10:48:04;;;;;;;66.78;8.75;;;8.40;99.90;;;;;;5056112;28;20079;-67
2022/01/17 10:50:33;;;;;;;58.85;8.50;;;8.50;99.90;;;;;;5031616;28;20045;-64
2022/01/17 10:53:05;;;;;;;52.88;8.77;;;8.50;99.90;;;;;;5015742;28;20102;-64
2022/01/17 10:55:37;;;;;;;66.50;8.50;;;8.50;99.90;;;;;;5036332;28;20072;-66
2022/01/17 10:58:17;;;;;;;65.45;8.27;;;8.50;99.90;;;;;;5041831;28;20045;-66
2022/01/17 11:00:45;;;;;;;67.43;9.13;;;8.60;99.90;;;;;;5032811;28;20055;-64
2022/01/17 11:03:19;;;;;;;59.90;9.02;;;8.70;99.90;;;;;;5027982;28;20052;-63
2022/01/17 11:05:48;;;;;;;60.17;8.23;;;8.80;99.90;;;;;;5035103;28;20057;-67
2022/01/17 11:08:17;;;;;;;62.97;9.75;;;8.80;99.90;;;;;;5040195;28;20506;-63
2022/01/17 11:10:46;;;;;;;58.83;8.45;;;8.80;99.90;;;;;;5035247;28;20587;-65
2022/01/17 11:13:14;;;;;;;59.95;8.30;;;8.80;99.90;;;;;;5030119;28;20056;-66
2022/01/17 11:15:43;;;;;;;55.75;8.02;;;8.80;99.90;;;;;;5034803;28;20503;-66
2022/01/17 11:18:17;;;;;;;59.88;8.73;;;8.80;99.90;;;;;;5035253;28;20041;-65
2022/01/17 11:20:44;;;;;;;54.15;9.38;;;8.80;99.90;;;;;;5033983;28;20094;-65
2022/01/17 11:23:10;;;;;;;65.60;9.18;;;8.90;99.90;;;;;;5012598;28;20045;-63
2022/01/17 11:25:41;;;;;;;64.63;9.55;;;8.90;99.90;;;;;;5033405;28;20514;-65
2022/01/17 11:28:08;;;;;;;52.72;9.10;;;9.00;99.90;;;;;;5041135;28;20106;-66
2022/01/17 11:30:36;;;;;;;66.82;9.18;;;9.00;99.90;;;;;;5033284;28;20045;-64
2022/01/17 11:33:07;;;;;;;66.13;9.80;;;9.10;99.90;;;;;;5031130;28;20128;-66
2022/01/17 11:35:34;;;;;;;59.47;8.88;;;9.10;99.90;;;;;;5035254;28;20050;-66
2022/01/17 11:38:03;;;;;;;69.82;9.93;;;9.10;99.90;;;;;;5029090;28;20594;-63
2022/01/17 11:40:37;;;;;;;71.18;10.38;;;9.20;99.90;;;;;;5039995;28;20479;-66
2022/01/17 11:43:21;;;;;;;60.33;9.10;;;9.20;99.90;;;;;;5027429;28;20132;-65
2022/01/17 11:45:50;;;;;;;67.90;10.25;;;9.20;99.90;;;;;;5027388;28;20529;-65
2022/01/17 11:48:34;;;;;;;61.13;10.32;;;9.10;99.90;;;;;;5031575;28;20048;-66
2022/01/17 11:51:15;;;;;;;62.42;9.80;;;9.10;99.90;;;;;;5035380;28;20100;-66
2022/01/17 11:53:49;;;;;;;65.95;10.43;;;9.10;99.90;;;;;;5022594;28;20136;-64
2022/01/17 11:56:36;;;;;;;67.30;9.48;;;9.10;99.90;;;;;;5029421;28;20088;-65
2022/01/17 11:59:28;;;;;;;57.88;9.20;;;9.10;99.90;;;;;;5029126;28;20793;-65
2022/01/17 12:02:27;;;;;;;58.00;9.07;;;9.10;99.90;;;;;;5028274;28;20603;-66
2022/01/17 12:05:08;;;;;;;59.20;10.38;;;9.20;99.90;;;;;;5015403;28;20068;-67
2022/01/17 12:07:42;;;;;;;65.05;11.23;;;9.20;99.90;;;;;;5012147;28;20050;-66
2022/01/17 12:10:11;;;;;;;62.90;9.52;;;9.20;99.90;;;;;;5029048;28;20347;-67
2022/01/17 12:12:37;;;;;;;70.50;10.20;;;9.30;99.90;;;;;;5027819;28;20084;-65
2022/01/17 12:15:10;;;;;;;69.65;9.98;;;9.30;99.90;;;;;;5029760;28;20040;-65
2022/01/17 12:17:36;;;;;;;56.72;9.52;;;9.30;99.90;;;;;;5037291;28;20052;-65
2022/01/17 12:20:06;;;;;;;57.95;9.00;;;9.30;99.90;;;;;;5030633;28;20443;-65
2022/01/17 12:22:43;;;;;;;56.58;8.95;;;9.30;99.90;;;;;;5032383;28;20048;-64
2022/01/17 12:25:25;;;;;;;66.80;9.60;;;9.20;99.90;;;;;;5028213;28;20048;-63
2022/01/17 12:28:16;;;;;;;63.35;9.57;;;9.30;99.90;;;;;;5031786;28;20076;-67
2022/01/17 12:30:42;;;;;;;62.33;9.68;;;9.20;99.90;;;;;;5033865;28;20502;-67
2022/01/17 12:33:11;;;;;;;59.22;8.98;;;9.20;99.90;;;;;;5025297;28;20045;-63
2022/01/17 12:35:46;;;;;;;68.82;9.07;;;9.20;99.90;;;;;;5028941;28;20107;-65
2022/01/17 12:38:28;;;;;;;71.03;9.65;;;9.20;99.90;;;;;;5028801;28;20045;-65
2022/01/17 12:40:55;;;;;;;57.00;8.60;;;9.10;99.90;;;;;;5027059;28;20045;-66
2022/01/17 12:43:29;;;;;;;56.25;9.18;;;9.10;99.90;;;;;;5043748;28;20033;-63
2022/01/17 12:45:59;;;;;;;67.78;10.20;;;9.10;99.90;;;;;;5031296;28;20622;-64
2022/01/17 12:48:27;;;;;;;60.05;9.82;;;9.10;99.90;;;;;;5031763;28;20496;-66
2022/01/17 12:50:54;;;;;;;66.13;9.43;;;9.10;99.90;;;;;;5031125;28;20542;-66
2022/01/17 12:53:26;;;;;;;71.15;10.65;;;9.10;99.90;;;;;;5029690;28;20045;-63
2022/01/17 12:55:57;;;;;;;70.40;10.32;;;9.20;99.90;;;;;;5017831;28;20574;-63
2022/01/17 12:58:28;;;;;;;64.97;9.38;;;9.20;99.90;;;;;;5030901;28;20041;-64
2022/01/17 13:00:54;;;;;;;59.60;9.80;;;9.20;99.90;;;;;;5032203;28;20414;-66
2022/01/17 13:03:23;;;;;;;69.00;9.52;;;9.20;99.90;;;;;;5031796;28;20049;-66
2022/01/17 13:05:50;;;;;;;57.25;8.25;;;9.20;99.90;;;;;;5030577;28;20128;-62
2022/01/17 13:08:16;;;;;;;57.33;9.50;;;9.30;99.90;;;;;;5032200;28;20151;-66
2022/01/17 13:10:43;;;;;;;65.55;9.32;;;9.30;99.90;;;;;;5034878;28;20041;-66
2022/01/17 13:13:16;;;;;;;66.30;9.75;;;9.20;99.90;;;;;;5013147;28;20053;-66
2022/01/17 13:15:58;;;;;;;46.65;8.00;;;9.30;99.90;;;;;;5035591;28;20153;-66
2022/01/17 13:18:24;;;;;;;60.25;9.25;;;9.20;99.90;;;;;;5032561;28;20535;-65
2022/01/17 13:20:50;;;;;;;68.15;9.88;;;9.20;99.90;;;;;;5030369;28;20045;-66